createdAt,value
2022-12-26T00:00:56.603Z,4.10
2022-12-26T00:03:24.125Z,3.20
2022-12-26T00:05:51.185Z,5.43
2022-12-26T00:08:18.677Z,4.07
2022-12-26T00:10:45.794Z,2.92
2022-12-26T00:13:40.194Z,4.30
2022-12-26T00:15:59.485Z,3.83
2022-12-26T00:18:26.471Z,4.30
2022-12-26T00:20:53.686Z,5.75
2022-12-26T00:23:22.902Z,4.88
2022-12-26T00:25:49.679Z,2.60
2022-12-26T00:28:16.563Z,4.75
2022-12-26T00:30:43.534Z,4.75
2022-12-26T00:33:10.350Z,4.43
2022-12-26T00:35:38.200Z,4.10
2022-12-26T00:38:05.008Z,3.35
2022-12-26T00:40:31.958Z,5.47
2022-12-26T00:42:58.847Z,5.18
2022-12-26T00:45:25.707Z,3.20
2022-12-26T00:47:52.554Z,3.35
2022-12-26T00:50:21.534Z,3.92
2022-12-26T00:52:48.386Z,4.18
2022-12-26T00:55:15.206Z,5.28
2022-12-26T00:57:42.044Z,3.28
2022-12-26T01:00:09.335Z,4.88
2022-12-26T01:02:39.076Z,4.90
2022-12-26T01:05:11.187Z,3.38
2022-12-26T01:08:20.075Z,4.80
2022-12-26T01:10:26.771Z,5.38
2022-12-26T01:12:54.000Z,5.97
2022-12-26T01:15:21.886Z,3.92
2022-12-26T01:17:48.661Z,4.43
2022-12-26T01:20:15.583Z,4.97
2022-12-26T01:22:42.574Z,6.40
2022-12-26T01:25:10.664Z,5.03
2022-12-26T01:27:37.622Z,7.78
2022-12-26T01:30:05.072Z,2.92
2022-12-26T01:32:32.096Z,3.95
2022-12-26T01:34:58.902Z,3.25
2022-12-26T01:37:25.789Z,4.30
2022-12-26T01:39:54.945Z,7.20
2022-12-26T01:42:24.119Z,6.28
2022-12-26T01:44:56.780Z,3.05
2022-12-26T01:47:26.056Z,4.50
2022-12-26T01:49:54.777Z,4.97
2022-12-26T01:52:37.464Z,3.25
2022-12-26T01:55:12.302Z,4.93
2022-12-26T01:57:43.501Z,4.80
2022-12-26T02:00:11.818Z,4.55
2022-12-26T02:02:58.113Z,7.10
2022-12-26T02:05:36.501Z,3.55
2022-12-26T02:08:20.461Z,4.75
2022-12-26T02:10:55.420Z,7.38
2022-12-26T02:13:22.859Z,6.10
2022-12-26T02:15:49.900Z,2.97
2022-12-26T02:18:16.874Z,3.90
2022-12-26T02:20:53.417Z,2.70
2022-12-26T02:24:05.070Z,3.95
2022-12-26T02:26:52.138Z,3.78
2022-12-26T02:29:56.567Z,3.35
2022-12-26T02:32:51.462Z,2.95
2022-12-26T02:35:40.157Z,4.00
2022-12-26T02:38:29.687Z,6.00
2022-12-26T02:41:17.958Z,3.17
2022-12-26T02:44:26.286Z,2.65
2022-12-26T02:47:10.860Z,3.30
2022-12-26T02:50:14.666Z,4.45
2022-12-26T02:53:28.149Z,3.45
2022-12-26T02:56:19.479Z,5.53
2022-12-26T02:59:17.400Z,3.42
2022-12-26T03:02:07.775Z,4.45
2022-12-26T03:04:57.632Z,5.03
2022-12-26T03:07:48.612Z,4.22
2022-12-26T03:10:41.186Z,5.45
2022-12-26T03:13:33.202Z,3.90
2022-12-26T03:16:29.267Z,3.63
2022-12-26T03:19:01.107Z,4.40
2022-12-26T03:21:36.615Z,3.75
2022-12-26T03:24:03.867Z,4.63
2022-12-26T03:26:53.873Z,2.80
2022-12-26T03:29:41.738Z,3.85
2022-12-26T03:32:12.143Z,3.33
2022-12-26T03:34:44.629Z,5.82
2022-12-26T03:37:11.445Z,3.35
2022-12-26T03:40:15.060Z,6.70
2022-12-26T03:43:23.868Z,3.55
2022-12-26T03:46:27.965Z,3.70
2022-12-26T03:49:28.021Z,5.15
2022-12-26T03:52:43.578Z,5.65
2022-12-26T03:55:35.610Z,5.22
2022-12-26T03:58:26.785Z,4.40
2022-12-26T04:01:14.887Z,6.10
2022-12-26T04:04:03.323Z,4.25
2022-12-26T04:07:01.878Z,4.88
2022-12-26T04:09:58.596Z,2.60
2022-12-26T04:12:46.473Z,3.40
2022-12-26T04:15:42.498Z,2.58
2022-12-26T04:18:43.288Z,4.45
2022-12-26T04:22:04.491Z,3.67
2022-12-26T04:24:55.856Z,4.90
2022-12-26T04:27:45.412Z,5.13
2022-12-26T04:30:30.742Z,3.03
2022-12-26T04:33:24.129Z,4.68
2022-12-26T04:36:15.421Z,3.65
2022-12-26T04:39:05.925Z,4.35
2022-12-26T04:41:53.781Z,3.83
2022-12-26T04:44:24.894Z,3.85
2022-12-26T04:46:53.136Z,3.15
2022-12-26T04:49:40.773Z,4.70
2022-12-26T04:52:12.651Z,4.80
2022-12-26T04:54:39.540Z,4.80
2022-12-26T04:57:07.030Z,3.88
2022-12-26T04:59:34.355Z,4.65
2022-12-26T05:02:19.529Z,2.85
2022-12-26T05:05:05.223Z,4.88
2022-12-26T05:07:54.275Z,4.15
2022-12-26T05:10:26.652Z,2.65
2022-12-26T05:12:54.388Z,5.40
2022-12-26T05:15:21.829Z,4.53
2022-12-26T05:18:07.303Z,3.42
2022-12-26T05:20:52.637Z,2.63
2022-12-26T05:23:46.338Z,3.38
2022-12-26T05:26:40.046Z,4.50
2022-12-26T05:29:07.405Z,5.32
2022-12-26T05:31:36.635Z,3.78
2022-12-26T05:34:08.100Z,6.05
2022-12-26T05:36:42.134Z,4.47
2022-12-26T05:39:09.687Z,6.78
2022-12-26T05:41:38.308Z,4.78
2022-12-26T05:44:05.829Z,2.58
2022-12-26T05:46:33.112Z,3.13
2022-12-26T05:49:00.168Z,4.15
2022-12-26T05:51:27.041Z,1.30
2022-12-26T05:54:01.382Z,2.95
2022-12-26T05:56:30.896Z,3.72
2022-12-26T05:59:00.385Z,3.20
2022-12-26T06:01:30.721Z,3.97
2022-12-26T06:03:59.671Z,2.47
2022-12-26T06:06:28.823Z,3.28
2022-12-26T06:08:59.360Z,3.17
2022-12-26T06:11:26.905Z,2.97
2022-12-26T06:13:56.485Z,3.55
2022-12-26T06:16:24.978Z,2.75
2022-12-26T06:18:52.168Z,4.68
2022-12-26T06:21:21.233Z,3.60
2022-12-26T06:23:49.093Z,3.22
2022-12-26T06:26:16.724Z,2.97
2022-12-26T06:28:43.976Z,3.30
2022-12-26T06:31:21.642Z,3.95
2022-12-26T06:33:51.776Z,2.47
2022-12-26T06:38:58.347Z,3.00
2022-12-26T06:41:25.623Z,1.95
2022-12-26T06:43:53.114Z,3.10
2022-12-26T06:46:30.416Z,2.97
2022-12-26T06:48:57.173Z,1.98
2022-12-26T06:51:27.095Z,2.67
2022-12-26T06:53:54.558Z,2.63
2022-12-26T06:56:23.757Z,3.20
2022-12-26T06:58:54.985Z,2.58
2022-12-26T07:01:25.137Z,3.50
2022-12-26T07:03:54.180Z,2.92
2022-12-26T07:06:34.206Z,3.30
2022-12-26T07:09:08.527Z,1.75
2022-12-26T07:11:38.045Z,3.65
2022-12-26T07:14:05.380Z,1.70
2022-12-26T07:16:35.704Z,2.55
2022-12-26T07:19:02.792Z,1.73
2022-12-26T07:21:33.464Z,2.40
2022-12-26T07:24:03.223Z,2.53
2022-12-26T07:26:30.159Z,2.65
2022-12-26T07:28:58.383Z,2.63
2022-12-26T07:31:28.230Z,1.75
2022-12-26T07:33:56.785Z,2.15
2022-12-26T07:36:25.303Z,2.08
2022-12-26T07:38:52.516Z,2.53
2022-12-26T07:41:37.820Z,1.23
2022-12-26T07:44:05.967Z,1.58
2022-12-26T07:46:33.228Z,2.05
2022-12-26T07:49:00.197Z,1.92
2022-12-26T07:51:27.519Z,1.02
2022-12-26T07:53:54.799Z,1.50
2022-12-26T07:56:21.544Z,1.10
2022-12-26T07:58:49.743Z,1.88
2022-12-26T08:01:17.117Z,1.70
2022-12-26T08:03:44.159Z,2.40
2022-12-26T08:06:11.832Z,1.65
2022-12-26T08:08:38.928Z,1.92
2022-12-26T08:11:07.711Z,2.15
2022-12-26T08:13:35.377Z,2.60
2022-12-26T08:16:07.036Z,2.28
2022-12-26T08:18:34.161Z,3.20
2022-12-26T08:21:01.243Z,1.50
2022-12-26T08:23:28.128Z,1.33
2022-12-26T08:25:57.478Z,1.95
2022-12-26T08:28:24.317Z,1.50
2022-12-26T08:30:51.186Z,4.20
2022-12-26T08:33:17.984Z,2.30
2022-12-26T08:35:44.960Z,1.77
2022-12-26T08:38:11.892Z,2.42
2022-12-26T08:40:43.539Z,1.45
2022-12-26T08:43:31.711Z,2.42
2022-12-26T08:46:04.551Z,1.52
2022-12-26T08:48:31.569Z,3.15
2022-12-26T08:51:01.774Z,2.10
2022-12-26T08:53:30.162Z,2.60
2022-12-26T08:55:59.338Z,2.58
2022-12-26T08:58:26.378Z,4.57
2022-12-26T09:00:55.390Z,3.58
2022-12-26T09:03:22.527Z,4.78
2022-12-26T09:05:49.508Z,2.15
2022-12-26T09:08:16.280Z,2.72
2022-12-26T09:10:43.016Z,2.10
2022-12-26T09:13:09.759Z,2.45
2022-12-26T09:15:36.964Z,3.95
2022-12-26T09:18:03.981Z,3.05
2022-12-26T09:20:30.750Z,2.92
2022-12-26T09:22:57.646Z,19.67
2022-12-26T09:25:26.325Z,5.63
2022-12-26T09:27:58.795Z,3.67
2022-12-26T09:30:26.537Z,3.88
2022-12-26T09:32:54.049Z,4.50
2022-12-26T09:35:21.187Z,3.13
2022-12-26T09:37:47.990Z,2.92
2022-12-26T09:40:22.637Z,3.85
2022-12-26T09:43:28.486Z,3.55
2022-12-26T09:46:07.458Z,4.78
2022-12-26T09:48:45.773Z,3.45
2022-12-26T09:51:12.616Z,5.63
2022-12-26T09:53:44.004Z,2.58
2022-12-26T09:56:36.897Z,3.40
2022-12-26T09:59:14.921Z,4.07
2022-12-26T10:01:41.896Z,6.70
2022-12-26T10:04:23.506Z,3.47
2022-12-26T10:07:16.303Z,3.13
2022-12-26T10:10:28.899Z,4.13
2022-12-26T10:13:07.737Z,3.55
2022-12-26T10:15:45.350Z,5.68
2022-12-26T10:18:27.116Z,3.03
2022-12-26T10:21:22.057Z,4.50
2022-12-26T10:24:17.057Z,3.25
2022-12-26T10:26:59.968Z,5.75
2022-12-26T10:30:03.946Z,5.15
2022-12-26T10:32:44.323Z,4.05
2022-12-26T10:35:22.010Z,3.15
2022-12-26T10:42:05.713Z,3.97
2022-12-26T10:44:35.614Z,2.42
2022-12-26T10:47:13.309Z,2.90
2022-12-26T10:49:41.491Z,3.72
2022-12-26T10:52:10.846Z,2.95
2022-12-26T10:54:41.374Z,2.75
2022-12-26T10:57:08.605Z,2.45
2022-12-26T10:59:51.959Z,5.93
2022-12-26T11:02:28.687Z,5.65
2022-12-26T11:05:21.828Z,3.33
2022-12-26T11:08:05.361Z,2.72
2022-12-26T11:10:32.635Z,4.75
2022-12-26T11:13:07.350Z,6.63
2022-12-26T11:15:46.870Z,8.13
2022-12-26T11:18:34.096Z,5.20
2022-12-26T11:21:29.200Z,5.30
2022-12-26T11:24:19.747Z,3.15
2022-12-26T11:26:49.256Z,4.65
2022-12-26T11:29:22.353Z,3.88
2022-12-26T11:32:01.013Z,4.35
2022-12-26T11:34:34.745Z,5.00
2022-12-26T11:37:02.320Z,6.13
2022-12-26T11:39:33.655Z,4.80
2022-12-26T11:42:01.077Z,3.03
2022-12-26T11:44:41.219Z,3.85
2022-12-26T11:47:12.818Z,3.40
2022-12-26T11:49:41.594Z,5.55
2022-12-26T11:52:38.182Z,6.88
2022-12-26T11:55:25.502Z,3.08
2022-12-26T11:58:07.658Z,3.03
2022-12-26T12:00:41.035Z,3.15
2022-12-26T12:03:22.136Z,3.80
2022-12-26T12:06:17.054Z,3.95
2022-12-26T12:09:10.955Z,3.53
2022-12-26T12:11:46.605Z,5.55
2022-12-26T12:16:59.988Z,3.15
2022-12-26T12:19:45.593Z,4.78
2022-12-26T12:22:31.765Z,4.15
2022-12-26T12:25:35.984Z,4.50
2022-12-26T12:28:31.399Z,3.63
2022-12-26T12:31:06.264Z,3.35
2022-12-26T12:34:05.477Z,5.75
2022-12-26T12:37:09.890Z,6.63
2022-12-26T12:40:03.705Z,2.35
2022-12-26T12:42:39.572Z,2.95
2022-12-26T12:45:32.857Z,5.40
2022-12-26T12:48:23.057Z,3.80
2022-12-26T12:50:59.214Z,2.80
2022-12-26T12:53:47.394Z,3.65
2022-12-26T12:56:30.422Z,2.58
2022-12-26T12:59:24.058Z,4.47
2022-12-26T13:01:56.111Z,3.67
2022-12-26T13:04:26.064Z,2.65
2022-12-26T13:06:58.196Z,4.45
2022-12-26T13:09:42.582Z,4.97
2022-12-26T13:12:16.534Z,2.80
2022-12-26T13:14:53.447Z,2.83
2022-12-26T13:17:27.481Z,3.47
2022-12-26T13:20:05.757Z,3.22
2022-12-26T13:23:02.061Z,11.38
2022-12-26T13:25:36.922Z,5.75
2022-12-26T13:28:15.270Z,3.65
2022-12-26T13:30:42.824Z,4.38
2022-12-26T13:33:17.344Z,3.50
2022-12-26T13:35:57.238Z,5.78
2022-12-26T13:38:45.052Z,2.42
2022-12-26T13:41:36.865Z,5.05
2022-12-26T13:44:23.907Z,4.70
2022-12-26T13:46:50.748Z,8.02
2022-12-26T13:49:36.464Z,5.68
2022-12-26T13:52:13.616Z,5.28
2022-12-26T13:55:10.627Z,2.63
2022-12-26T13:57:44.189Z,4.05
2022-12-26T14:00:14.227Z,4.47
2022-12-26T14:03:21.972Z,2.15
2022-12-26T14:06:13.476Z,4.38
2022-12-26T14:08:55.408Z,4.45
2022-12-26T14:12:02.801Z,2.47
2022-12-26T14:14:55.872Z,7.28
2022-12-26T14:17:53.381Z,5.80
2022-12-26T14:20:39.864Z,4.68
2022-12-26T14:23:16.300Z,5.10
2022-12-26T14:25:56.756Z,4.72
2022-12-26T14:28:59.221Z,2.97
2022-12-26T14:31:51.760Z,4.25
2022-12-26T14:34:29.467Z,3.92
2022-12-26T14:37:29.678Z,4.88
2022-12-26T14:40:37.370Z,3.45
2022-12-26T14:43:43.034Z,4.22
2022-12-26T14:46:38.813Z,2.97
2022-12-26T14:49:41.013Z,4.07
2022-12-26T14:52:26.338Z,6.53
2022-12-26T14:54:54.995Z,2.95
2022-12-26T14:57:49.022Z,3.92
2022-12-26T15:00:26.845Z,4.75
2022-12-26T15:03:01.619Z,4.63
2022-12-26T15:05:40.292Z,4.78
2022-12-26T15:08:25.920Z,4.03
2022-12-26T15:11:40.733Z,5.22
2022-12-26T15:14:37.465Z,5.85
2022-12-26T15:17:34.316Z,4.90
2022-12-26T15:20:39.202Z,6.82
2022-12-26T15:23:30.767Z,7.72
2022-12-26T15:26:15.305Z,5.82
2022-12-26T15:29:08.445Z,8.43
2022-12-26T15:32:08.400Z,5.07
2022-12-26T15:34:53.888Z,4.60
2022-12-26T15:37:49.574Z,5.25
2022-12-26T15:40:25.361Z,9.37
2022-12-26T15:43:18.069Z,4.95
2022-12-26T15:45:54.418Z,7.53
2022-12-26T15:48:55.247Z,8.70
2022-12-26T15:51:59.702Z,7.88
2022-12-26T15:54:50.416Z,7.55
2022-12-26T15:57:27.326Z,3.88
2022-12-26T16:00:17.771Z,5.28
2022-12-26T16:03:05.908Z,4.05
2022-12-26T16:05:51.373Z,5.75
2022-12-26T16:09:02.621Z,5.80
2022-12-26T16:11:53.071Z,6.72
2022-12-26T16:14:34.732Z,5.25
2022-12-26T16:17:24.013Z,8.57
2022-12-26T16:19:52.629Z,8.00
2022-12-26T16:22:48.135Z,6.35
2022-12-26T16:25:26.102Z,7.07
2022-12-26T16:27:58.217Z,7.85
2022-12-26T16:30:38.236Z,4.60
2022-12-26T16:33:06.004Z,7.88
2022-12-26T16:35:41.769Z,9.18
2022-12-26T16:38:18.720Z,9.68
2022-12-26T16:40:48.829Z,14.35
2022-12-26T16:43:18.608Z,7.80
2022-12-26T16:45:47.785Z,7.72
2022-12-26T16:48:18.302Z,13.63
2022-12-26T16:50:51.779Z,8.65
2022-12-26T16:53:22.244Z,8.48
2022-12-26T16:58:32.312Z,9.80
2022-12-26T17:01:13.887Z,7.50
2022-12-26T17:04:03.229Z,7.43
2022-12-26T17:06:52.728Z,10.52
2022-12-26T17:09:21.158Z,9.45
2022-12-26T17:12:20.220Z,7.18
2022-12-26T17:14:49.481Z,9.00
2022-12-26T17:17:27.119Z,7.00
2022-12-26T17:19:56.403Z,5.85
2022-12-26T17:22:51.343Z,7.38
2022-12-26T17:25:20.716Z,5.38
2022-12-26T17:28:09.044Z,6.47
2022-12-26T17:30:52.246Z,6.68
2022-12-26T17:33:35.611Z,12.07
2022-12-26T17:38:54.421Z,5.95
2022-12-26T17:41:21.496Z,8.65
2022-12-26T17:43:49.112Z,9.95
2022-12-26T17:46:17.729Z,6.50
2022-12-26T17:48:45.039Z,5.85
2022-12-26T17:51:20.934Z,7.15
2022-12-26T17:53:50.418Z,9.20
2022-12-26T17:56:21.331Z,5.18
2022-12-26T17:58:52.655Z,9.18
2022-12-26T18:01:31.196Z,8.13
2022-12-26T18:03:58.147Z,4.97
2022-12-26T18:06:25.322Z,12.07
2022-12-26T18:08:58.169Z,7.57
2022-12-26T18:11:25.038Z,10.25
2022-12-26T18:16:52.632Z,9.98
2022-12-26T18:19:20.512Z,8.45
2022-12-26T18:21:47.819Z,7.32
2022-12-26T18:24:16.693Z,5.32
2022-12-26T18:26:48.619Z,6.32
2022-12-26T18:29:20.500Z,4.50
2022-12-26T18:31:47.700Z,4.80
2022-12-26T18:34:15.364Z,6.07
2022-12-26T18:36:43.157Z,9.27
2022-12-26T18:39:20.678Z,5.50
2022-12-26T18:41:53.924Z,9.57
2022-12-26T18:44:24.227Z,5.18
2022-12-26T18:46:56.447Z,6.85
2022-12-26T18:49:28.481Z,7.15
2022-12-26T18:51:59.447Z,10.38
2022-12-26T18:54:29.766Z,9.55
2022-12-26T19:00:03.548Z,5.53
2022-12-26T19:02:33.043Z,9.43
2022-12-26T19:05:00.296Z,7.70
2022-12-26T19:07:27.235Z,7.50
2022-12-26T19:10:00.788Z,3.85
2022-12-26T19:12:42.703Z,6.63
2022-12-26T19:15:11.088Z,7.88
2022-12-26T19:17:41.294Z,7.78
2022-12-26T19:20:32.260Z,9.18
2022-12-26T19:22:59.757Z,7.38
2022-12-26T19:25:36.407Z,9.00
2022-12-26T19:28:06.781Z,7.38
2022-12-26T19:30:39.393Z,7.10
2022-12-26T19:33:06.473Z,6.30
2022-12-26T19:35:33.505Z,10.88
2022-12-26T19:38:00.381Z,12.85
2022-12-26T19:40:27.300Z,11.52
2022-12-26T19:42:54.164Z,7.90
2022-12-26T19:45:22.897Z,8.00
2022-12-26T19:47:50.070Z,6.00
2022-12-26T19:50:17.051Z,5.10
2022-12-26T19:52:44.000Z,6.38
2022-12-26T19:55:14.224Z,8.50
2022-12-26T19:57:43.107Z,10.13
2022-12-26T20:00:33.408Z,14.75
2022-12-26T20:03:00.508Z,9.27
2022-12-26T20:05:35.051Z,11.68
2022-12-26T20:08:03.522Z,8.50
2022-12-26T20:10:30.438Z,8.07
2022-12-26T20:12:59.204Z,6.57
2022-12-26T20:15:26.085Z,7.63
2022-12-26T20:17:53.228Z,8.68
2022-12-26T20:20:21.169Z,8.30
2022-12-26T20:22:53.194Z,8.68
2022-12-26T20:25:20.441Z,10.75
2022-12-26T20:27:47.236Z,8.68
2022-12-26T20:30:14.289Z,7.57
2022-12-26T20:32:46.565Z,16.45
2022-12-26T20:35:14.439Z,11.48
2022-12-26T20:37:41.360Z,7.25
2022-12-26T20:40:08.712Z,10.32
2022-12-26T20:42:35.834Z,13.60
2022-12-26T20:47:58.221Z,12.32
2022-12-26T20:50:33.985Z,9.65
2022-12-26T20:53:00.857Z,11.43
2022-12-26T20:55:27.763Z,11.35
2022-12-26T20:57:54.701Z,13.93
2022-12-26T21:00:21.723Z,11.60
2022-12-26T21:02:48.718Z,11.07
2022-12-26T21:05:15.859Z,5.10
2022-12-26T21:07:42.981Z,7.53
2022-12-26T21:10:10.518Z,9.40
2022-12-26T21:12:37.383Z,6.22
2022-12-26T21:15:04.642Z,6.20
2022-12-26T21:17:31.533Z,7.38
2022-12-26T21:19:58.413Z,10.57
2022-12-26T21:22:40.430Z,7.65
2022-12-26T21:25:08.260Z,14.32
2022-12-26T21:27:42.796Z,9.85
2022-12-26T21:30:12.303Z,6.65
2022-12-26T21:32:45.192Z,8.45
2022-12-26T21:35:30.785Z,11.23
2022-12-26T21:37:58.074Z,8.25
2022-12-26T21:40:27.831Z,14.38
2022-12-26T21:42:54.793Z,9.68
2022-12-26T21:45:21.851Z,6.40
2022-12-26T21:47:49.172Z,9.15
2022-12-26T21:50:16.684Z,8.50
2022-12-26T21:52:44.211Z,11.70
2022-12-26T21:55:26.516Z,10.48
2022-12-26T21:57:59.646Z,10.75
2022-12-26T22:08:30.713Z,10.57
2022-12-26T22:17:12.024Z,12.73
2022-12-26T22:19:39.098Z,11.30
2022-12-26T22:22:06.010Z,10.75
2022-12-26T22:24:33.399Z,14.73
2022-12-26T22:29:45.507Z,10.55
2022-12-26T22:32:14.568Z,8.13
2022-12-26T22:43:32.333Z,7.30
2022-12-26T22:52:56.615Z,8.70
2022-12-26T22:58:12.682Z,8.98
2022-12-26T23:00:43.737Z,8.43
2022-12-26T23:50:43.301Z,7.75
2022-12-26T23:53:12.126Z,7.65
